Capitol Logistics 366


KIAD
Washington Dulles International Airport
Dulles, Virginia, US
CYYZ
Lester B. Pearson International Airport
Toronto, , CA

Activity Log

Date Flight Route Aircraft Duration
11/12/2020 CPX366 JERES2 JERES J220 SFK WOZEE LINNG9 B763 1h 02m
09/23/2020 CPX366 JERES2 JERES J220 SFK WOZEE LINNG2 B763 1h 16m
03/26/2020 CPX366 JERES2 JERES J220 MICAH J61 PSB J60 MIDST OXMAN VERKO9 B763 1h 27m
03/01/2020 CPX366 JERES2 JERES J220 MICAH J61 PSB J60 MIDST OXMAN VERKO9 B763 1h 18m
11/04/2019 CPX366 JERES2 JERES J220 MICAH J61 PSB J60 MIDST OXMAN LINNG2 B763 1h 17m
06/18/2019 CPX366 JERES2 JERES J220 SFK WOZEE LINNG9 B763 1h 09m

Route Details

Aircraft Information
Primary: Boeing 767-300BDSF
Backup: Not Available
Route Data
Distance: 301nm
Sched. Duration: 1h 24m
Avg. Duration: 1h 15m (-9m)
Times Flown: 6
Recm'd Route: JERES2 JERES J220 SFK WOZEE LINNG9
Planned Altitude: 34,000ft
Origin Wx: KIAD 190852Z 00000KT 10SM OVC055 01/M05 A3013 RMK AO2 SLP204 T00061050 53015
Dest. Wx: CYYZ 190852Z 25004KT 10SM -SN SCT014 OVC025 M01/M02 A2990 RMK SC4SC4 SLP135
Notes:

Financial History
Total Freight: 366,826lbs
Average Load: 61,138lbs/flt
Fuel Used: 74,061lbs
Avg. Fuel Used: 12,344lbs/flt
Fuel Expense: $96,318
Avg. Fuel Expense: $16,053
Avg. Fuel Cost: $1.30/lbs
Total Gross Income: $503,227
Pilot Pay: $1,144
Total Expenses: $54,661
Total Revenue: $350,569
Average Revenue: $83,871.16